sensor_id;sensor_type;location;lat;lon;timestamp;P1;P2;P0
73973;PMS5003;62336;-26.094;27.994;2023-06-22T00:00:00;31;29;
73973;PMS5003;62336;-26.094;27.994;2023-06-22T00:02:25;26;26;
73973;PMS5003;62336;-26.094;27.994;2023-06-22T00:04:52;32;28;
73973;PMS5003;62336;-26.094;27.994;2023-06-22T00:07:16;27;26;
73973;PMS5003;62336;-26.094;27.994;2023-06-22T00:09:42;29;28;
73973;PMS5003;62336;-26.094;27.994;2023-06-22T00:12:07;28;26;
73973;PMS5003;62336;-26.094;27.994;2023-06-22T00:14:32;29;28;
73973;PMS5003;62336;-26.094;27.994;2023-06-22T00:16:58;27;27;
73973;PMS5003;62336;-26.094;27.994;2023-06-22T00:19:24;27;25;
73973;PMS5003;62336;-26.094;27.994;2023-06-22T00:21:48;25;24;
73973;PMS5003;62336;-26.094;27.994;2023-06-22T00:24:13;26;26;
73973;PMS5003;62336;-26.094;27.994;2023-06-22T00:26:39;30;29;
73973;PMS5003;62336;-26.094;27.994;2023-06-22T00:29:05;33;29;
73973;PMS5003;62336;-26.094;27.994;2023-06-22T00:31:30;29;28;
73973;PMS5003;62336;-26.094;27.994;2023-06-22T00:33:55;31;30;
73973;PMS5003;62336;-26.094;27.994;2023-06-22T00:36:21;30;27;
73973;PMS5003;62336;-26.094;27.994;2023-06-22T00:38:46;32;29;
73973;PMS5003;62336;-26.094;27.994;2023-06-22T00:41:11;31;31;
73973;PMS5003;62336;-26.094;27.994;2023-06-22T00:43:38;30;29;
73973;PMS5003;62336;-26.094;27.994;2023-06-22T00:46:03;28;27;
73973;PMS5003;62336;-26.094;27.994;2023-06-22T00:48:29;31;30;
73973;PMS5003;62336;-26.094;27.994;2023-06-22T00:50:55;32;30;
73973;PMS5003;62336;-26.094;27.994;2023-06-22T00:53:20;32;31;
73973;PMS5003;62336;-26.094;27.994;2023-06-22T00:55:46;31;30;
73973;PMS5003;62336;-26.094;27.994;2023-06-22T00:58:11;36;32;
73973;PMS5003;62336;-26.094;27.994;2023-06-22T01:00:36;36;34;
73973;PMS5003;62336;-26.094;27.994;2023-06-22T01:03:01;31;30;
73973;PMS5003;62336;-26.094;27.994;2023-06-22T01:05:27;30;29;
73973;PMS5003;62336;-26.094;27.994;2023-06-22T01:07:56;33;29;
73973;PMS5003;62336;-26.094;27.994;2023-06-22T01:10:18;32;31;
73973;PMS5003;62336;-26.094;27.994;2023-06-22T01:12:44;33;33;
73973;PMS5003;62336;-26.094;27.994;2023-06-22T01:15:10;35;31;
73973;PMS5003;62336;-26.094;27.994;2023-06-22T01:17:33;36;34;
73973;PMS5003;62336;-26.094;27.994;2023-06-22T01:19:59;32;31;
73973;PMS5003;62336;-26.094;27.994;2023-06-22T01:22:24;33;33;
73973;PMS5003;62336;-26.094;27.994;2023-06-22T01:24:55;35;33;
73973;PMS5003;62336;-26.094;27.994;2023-06-22T01:27:17;38;37;
73973;PMS5003;62336;-26.094;27.994;2023-06-22T01:29:40;38;35;
73973;PMS5003;62336;-26.094;27.994;2023-06-22T01:32:06;35;34;
73973;PMS5003;62336;-26.094;27.994;2023-06-22T01:34:31;34;33;
73973;PMS5003;62336;-26.094;27.994;2023-06-22T01:36:56;32;30;
73973;PMS5003;62336;-26.094;27.994;2023-06-22T01:39:21;37;31;
73973;PMS5003;62336;-26.094;27.994;2023-06-22T01:41:47;37;35;
73973;PMS5003;62336;-26.094;27.994;2023-06-22T01:44:13;38;34;
73973;PMS5003;62336;-26.094;27.994;2023-06-22T01:46:38;39;36;
73973;PMS5003;62336;-26.094;27.994;2023-06-22T01:49:03;42;39;
73973;PMS5003;62336;-26.094;27.994;2023-06-22T01:51:28;31;30;
73973;PMS5003;62336;-26.094;27.994;2023-06-22T01:53:53;37;35;
73973;PMS5003;62336;-26.094;27.994;2023-06-22T01:56:20;38;37;
73973;PMS5003;62336;-26.094;27.994;2023-06-22T01:58:47;37;35;
73973;PMS5003;62336;-26.094;27.994;2023-06-22T02:01:11;35;33;
73973;PMS5003;62336;-26.094;27.994;2023-06-22T02:03:37;40;39;
73973;PMS5003;62336;-26.094;27.994;2023-06-22T02:06:10;33;32;
73973;PMS5003;62336;-26.094;27.994;2023-06-22T02:08:28;41;39;
73973;PMS5003;62336;-26.094;27.994;2023-06-22T02:10:53;41;38;
73973;PMS5003;62336;-26.094;27.994;2023-06-22T02:13:18;44;41;
73973;PMS5003;62336;-26.094;27.994;2023-06-22T02:15:44;46;41;
73973;PMS5003;62336;-26.094;27.994;2023-06-22T02:18:09;46;45;
73973;PMS5003;62336;-26.094;27.994;2023-06-22T02:20:36;51;47;
73973;PMS5003;62336;-26.094;27.994;2023-06-22T02:23:00;49;47;
73973;PMS5003;62336;-26.094;27.994;2023-06-22T02:25:25;53;51;
73973;PMS5003;62336;-26.094;27.994;2023-06-22T02:27:50;56;53;
73973;PMS5003;62336;-26.094;27.994;2023-06-22T02:30:16;58;55;
73973;PMS5003;62336;-26.094;27.994;2023-06-22T02:32:42;63;55;
73973;PMS5003;62336;-26.094;27.994;2023-06-22T02:35:08;59;57;
73973;PMS5003;62336;-26.094;27.994;2023-06-22T02:37:33;60;57;
73973;PMS5003;62336;-26.094;27.994;2023-06-22T02:39:58;67;66;
73973;PMS5003;62336;-26.094;27.994;2023-06-22T02:42:24;70;66;
73973;PMS5003;62336;-26.094;27.994;2023-06-22T02:44:50;71;67;
73973;PMS5003;62336;-26.094;27.994;2023-06-22T02:47:15;60;58;
73973;PMS5003;62336;-26.094;27.994;2023-06-22T02:49:40;60;59;
73973;PMS5003;62336;-26.094;27.994;2023-06-22T02:52:07;60;57;
73973;PMS5003;62336;-26.094;27.994;2023-06-22T02:54:31;66;62;
73973;PMS5003;62336;-26.094;27.994;2023-06-22T02:56:56;59;57;
73973;PMS5003;62336;-26.094;27.994;2023-06-22T02:59:22;59;56;
73973;PMS5003;62336;-26.094;27.994;2023-06-22T03:01:47;60;55;
73973;PMS5003;62336;-26.094;27.994;2023-06-22T03:04:12;65;57;
73973;PMS5003;62336;-26.094;27.994;2023-06-22T03:06:38;57;56;
73973;PMS5003;62336;-26.094;27.994;2023-06-22T03:09:04;66;59;
73973;PMS5003;62336;-26.094;27.994;2023-06-22T03:11:29;62;56;
73973;PMS5003;62336;-26.094;27.994;2023-06-22T03:13:54;62;59;
73973;PMS5003;62336;-26.094;27.994;2023-06-22T03:16:20;60;58;
73973;PMS5003;62336;-26.094;27.994;2023-06-22T03:18:45;60;54;
73973;PMS5003;62336;-26.094;27.994;2023-06-22T03:21:10;53;51;
73973;PMS5003;62336;-26.094;27.994;2023-06-22T03:23:36;58;54;
73973;PMS5003;62336;-26.094;27.994;2023-06-22T03:26:01;66;58;
73973;PMS5003;62336;-26.094;27.994;2023-06-22T03:28:26;59;56;
73973;PMS5003;62336;-26.094;27.994;2023-06-22T03:30:52;60;58;
73973;PMS5003;62336;-26.094;27.994;2023-06-22T03:33:18;57;54;
73973;PMS5003;62336;-26.094;27.994;2023-06-22T03:35:42;58;56;
73973;PMS5003;62336;-26.094;27.994;2023-06-22T03:38:07;66;60;
73973;PMS5003;62336;-26.094;27.994;2023-06-22T03:40:33;58;55;
73973;PMS5003;62336;-26.094;27.994;2023-06-22T03:42:58;54;51;
73973;PMS5003;62336;-26.094;27.994;2023-06-22T03:45:24;51;49;
73973;PMS5003;62336;-26.094;27.994;2023-06-22T03:47:48;52;51;
73973;PMS5003;62336;-26.094;27.994;2023-06-22T03:50:14;52;49;
73973;PMS5003;62336;-26.094;27.994;2023-06-22T03:52:39;56;50;
73973;PMS5003;62336;-26.094;27.994;2023-06-22T03:55:05;49;47;
73973;PMS5003;62336;-26.094;27.994;2023-06-22T03:57:30;53;50;
73973;PMS5003;62336;-26.094;27.994;2023-06-22T03:59:56;52;48;
73973;PMS5003;62336;-26.094;27.994;2023-06-22T04:02:21;49;46;
73973;PMS5003;62336;-26.094;27.994;2023-06-22T04:04:47;49;44;
73973;PMS5003;62336;-26.094;27.994;2023-06-22T04:07:12;52;49;
73973;PMS5003;62336;-26.094;27.994;2023-06-22T04:09:38;53;50;
73973;PMS5003;62336;-26.094;27.994;2023-06-22T04:12:06;48;46;
73973;PMS5003;62336;-26.094;27.994;2023-06-22T04:14:28;53;50;
73973;PMS5003;62336;-26.094;27.994;2023-06-22T04:16:53;51;49;
73973;PMS5003;62336;-26.094;27.994;2023-06-22T04:19:20;50;47;
73973;PMS5003;62336;-26.094;27.994;2023-06-22T04:21:45;47;46;
73973;PMS5003;62336;-26.094;27.994;2023-06-22T04:24:10;48;48;
73973;PMS5003;62336;-26.094;27.994;2023-06-22T04:26:36;49;46;
73973;PMS5003;62336;-26.094;27.994;2023-06-22T04:29:01;46;44;
73973;PMS5003;62336;-26.094;27.994;2023-06-22T04:31:27;47;46;
73973;PMS5003;62336;-26.094;27.994;2023-06-22T04:33:52;38;36;
73973;PMS5003;62336;-26.094;27.994;2023-06-22T04:36:17;44;40;
73973;PMS5003;62336;-26.094;27.994;2023-06-22T04:38:42;43;40;
73973;PMS5003;62336;-26.094;27.994;2023-06-22T04:41:08;43;38;
73973;PMS5003;62336;-26.094;27.994;2023-06-22T04:43:34;36;34;
73973;PMS5003;62336;-26.094;27.994;2023-06-22T04:45:59;33;32;
73973;PMS5003;62336;-26.094;27.994;2023-06-22T04:48:24;40;37;
73973;PMS5003;62336;-26.094;27.994;2023-06-22T04:50:49;40;38;
73973;PMS5003;62336;-26.094;27.994;2023-06-22T04:53:15;36;35;
73973;PMS5003;62336;-26.094;27.994;2023-06-22T04:55:40;30;30;
73973;PMS5003;62336;-26.094;27.994;2023-06-22T04:58:06;34;30;
73973;PMS5003;62336;-26.094;27.994;2023-06-22T05:00:31;33;27;
73973;PMS5003;62336;-26.094;27.994;2023-06-22T05:02:57;30;27;
73973;PMS5003;62336;-26.094;27.994;2023-06-22T05:05:22;26;26;
73973;PMS5003;62336;-26.094;27.994;2023-06-22T05:07:50;34;31;
73973;PMS5003;62336;-26.094;27.994;2023-06-22T05:10:14;29;27;
73973;PMS5003;62336;-26.094;27.994;2023-06-22T05:12:39;27;24;
73973;PMS5003;62336;-26.094;27.994;2023-06-22T05:15:05;26;25;
73973;PMS5003;62336;-26.094;27.994;2023-06-22T05:17:30;23;22;
73973;PMS5003;62336;-26.094;27.994;2023-06-22T05:19:55;26;24;
73973;PMS5003;62336;-26.094;27.994;2023-06-22T05:22:22;26;24;
73973;PMS5003;62336;-26.094;27.994;2023-06-22T05:24:46;27;26;
73973;PMS5003;62336;-26.094;27.994;2023-06-22T05:27:12;23;23;
73973;PMS5003;62336;-26.094;27.994;2023-06-22T05:29:37;21;21;
73973;PMS5003;62336;-26.094;27.994;2023-06-22T05:32:03;25;22;
73973;PMS5003;62336;-26.094;27.994;2023-06-22T05:34:28;22;19;
73973;PMS5003;62336;-26.094;27.994;2023-06-22T05:36:54;26;25;
73973;PMS5003;62336;-26.094;27.994;2023-06-22T05:39:19;22;22;
73973;PMS5003;62336;-26.094;27.994;2023-06-22T05:41:45;24;23;
73973;PMS5003;62336;-26.094;27.994;2023-06-22T05:44:11;24;20;
73973;PMS5003;62336;-26.094;27.994;2023-06-22T05:46:36;23;23;
73973;PMS5003;62336;-26.094;27.994;2023-06-22T05:49:02;20;20;
73973;PMS5003;62336;-26.094;27.994;2023-06-22T05:51:27;23;19;
73973;PMS5003;62336;-26.094;27.994;2023-06-22T05:53:52;17;17;
73973;PMS5003;62336;-26.094;27.994;2023-06-22T05:56:17;20;19;
73973;PMS5003;62336;-26.094;27.994;2023-06-22T05:58:42;25;23;
73973;PMS5003;62336;-26.094;27.994;2023-06-22T06:01:07;19;17;
73973;PMS5003;62336;-26.094;27.994;2023-06-22T06:03:33;18;18;
73973;PMS5003;62336;-26.094;27.994;2023-06-22T06:05:58;20;18;
73973;PMS5003;62336;-26.094;27.994;2023-06-22T06:08:23;18;17;
73973;PMS5003;62336;-26.094;27.994;2023-06-22T06:10:50;20;20;
73973;PMS5003;62336;-26.094;27.994;2023-06-22T06:13:13;21;20;
73973;PMS5003;62336;-26.094;27.994;2023-06-22T06:15:39;19;18;
73973;PMS5003;62336;-26.094;27.994;2023-06-22T06:18:04;20;20;
73973;PMS5003;62336;-26.094;27.994;2023-06-22T06:20:30;20;18;
73973;PMS5003;62336;-26.094;27.994;2023-06-22T06:22:56;16;15;
73973;PMS5003;62336;-26.094;27.994;2023-06-22T06:25:22;18;17;
73973;PMS5003;62336;-26.094;27.994;2023-06-22T06:27:47;16;15;
73973;PMS5003;62336;-26.094;27.994;2023-06-22T06:30:12;20;17;
73973;PMS5003;62336;-26.094;27.994;2023-06-22T06:32:37;15;15;
73973;PMS5003;62336;-26.094;27.994;2023-06-22T06:35:04;19;17;
73973;PMS5003;62336;-26.094;27.994;2023-06-22T06:37:29;22;19;
73973;PMS5003;62336;-26.094;27.994;2023-06-22T06:39:54;19;17;
73973;PMS5003;62336;-26.094;27.994;2023-06-22T06:42:19;16;15;
73973;PMS5003;62336;-26.094;27.994;2023-06-22T06:44:44;16;15;
73973;PMS5003;62336;-26.094;27.994;2023-06-22T06:47:10;14;13;
73973;PMS5003;62336;-26.094;27.994;2023-06-22T06:49:35;13;12;
73973;PMS5003;62336;-26.094;27.994;2023-06-22T06:52:00;14;13;
73973;PMS5003;62336;-26.094;27.994;2023-06-22T06:54:26;14;14;
73973;PMS5003;62336;-26.094;27.994;2023-06-22T06:56:52;14;13;
73973;PMS5003;62336;-26.094;27.994;2023-06-22T06:59:16;19;15;
73973;PMS5003;62336;-26.094;27.994;2023-06-22T07:01:41;11;11;
73973;PMS5003;62336;-26.094;27.994;2023-06-22T07:04:07;10;9;
73973;PMS5003;62336;-26.094;27.994;2023-06-22T07:06:32;12;12;
73973;PMS5003;62336;-26.094;27.994;2023-06-22T07:08:57;11;11;
73973;PMS5003;62336;-26.094;27.994;2023-06-22T07:11:22;11;9;
73973;PMS5003;62336;-26.094;27.994;2023-06-22T07:13:47;9;8;
73973;PMS5003;62336;-26.094;27.994;2023-06-22T07:16:13;9;9;
73973;PMS5003;62336;-26.094;27.994;2023-06-22T07:18:39;7;7;
73973;PMS5003;62336;-26.094;27.994;2023-06-22T07:21:03;11;11;
73973;PMS5003;62336;-26.094;27.994;2023-06-22T07:23:29;8;7;
73973;PMS5003;62336;-26.094;27.994;2023-06-22T07:25:53;8;7;
73973;PMS5003;62336;-26.094;27.994;2023-06-22T07:28:18;10;9;
73973;PMS5003;62336;-26.094;27.994;2023-06-22T07:30:43;7;7;
73973;PMS5003;62336;-26.094;27.994;2023-06-22T07:33:08;6;6;
73973;PMS5003;62336;-26.094;27.994;2023-06-22T07:35:34;8;7;
73973;PMS5003;62336;-26.094;27.994;2023-06-22T07:37:58;7;6;
73973;PMS5003;62336;-26.094;27.994;2023-06-22T07:40:23;6;6;
73973;PMS5003;62336;-26.094;27.994;2023-06-22T07:42:48;6;6;
73973;PMS5003;62336;-26.094;27.994;2023-06-22T07:45:14;8;7;
73973;PMS5003;62336;-26.094;27.994;2023-06-22T07:47:40;8;7;
73973;PMS5003;62336;-26.094;27.994;2023-06-22T07:50:04;7;7;
73973;PMS5003;62336;-26.094;27.994;2023-06-22T07:52:29;7;7;
73973;PMS5003;62336;-26.094;27.994;2023-06-22T07:54:54;8;7;
73973;PMS5003;62336;-26.094;27.994;2023-06-22T07:57:19;9;8;
73973;PMS5003;62336;-26.094;27.994;2023-06-22T07:59:44;9;7;
73973;PMS5003;62336;-26.094;27.994;2023-06-22T08:02:09;10;9;
73973;PMS5003;62336;-26.094;27.994;2023-06-22T08:04:34;12;12;
73973;PMS5003;62336;-26.094;27.994;2023-06-22T08:07:07;11;11;
73973;PMS5003;62336;-26.094;27.994;2023-06-22T08:09:25;10;10;
73973;PMS5003;62336;-26.094;27.994;2023-06-22T08:11:51;8;8;
73973;PMS5003;62336;-26.094;27.994;2023-06-22T08:14:16;9;8;
73973;PMS5003;62336;-26.094;27.994;2023-06-22T08:16:42;8;8;
73973;PMS5003;62336;-26.094;27.994;2023-06-22T08:19:07;8;8;
73973;PMS5003;62336;-26.094;27.994;2023-06-22T08:21:33;10;10;
73973;PMS5003;62336;-26.094;27.994;2023-06-22T08:23:58;10;10;
73973;PMS5003;62336;-26.094;27.994;2023-06-22T08:26:24;13;12;
73973;PMS5003;62336;-26.094;27.994;2023-06-22T08:28:49;15;13;
73973;PMS5003;62336;-26.094;27.994;2023-06-22T08:31:15;14;13;
73973;PMS5003;62336;-26.094;27.994;2023-06-22T08:33:40;14;13;
73973;PMS5003;62336;-26.094;27.994;2023-06-22T08:36:06;14;14;
73973;PMS5003;62336;-26.094;27.994;2023-06-22T08:38:30;14;12;
73973;PMS5003;62336;-26.094;27.994;2023-06-22T08:40:56;15;14;
73973;PMS5003;62336;-26.094;27.994;2023-06-22T08:43:22;11;11;
73973;PMS5003;62336;-26.094;27.994;2023-06-22T08:45:47;15;14;
73973;PMS5003;62336;-26.094;27.994;2023-06-22T08:48:13;16;15;
73973;PMS5003;62336;-26.094;27.994;2023-06-22T08:50:39;18;18;
73973;PMS5003;62336;-26.094;27.994;2023-06-22T08:53:03;22;21;
73973;PMS5003;62336;-26.094;27.994;2023-06-22T08:55:29;24;21;
73973;PMS5003;62336;-26.094;27.994;2023-06-22T08:57:54;19;18;
73973;PMS5003;62336;-26.094;27.994;2023-06-22T09:00:19;18;16;
73973;PMS5003;62336;-26.094;27.994;2023-06-22T09:02:44;25;23;
73973;PMS5003;62336;-26.094;27.994;2023-06-22T09:05:09;22;21;
73973;PMS5003;62336;-26.094;27.994;2023-06-22T09:07:35;20;18;
73973;PMS5003;62336;-26.094;27.994;2023-06-22T09:10:00;22;20;
73973;PMS5003;62336;-26.094;27.994;2023-06-22T09:12:26;15;15;
73973;PMS5003;62336;-26.094;27.994;2023-06-22T09:14:51;14;13;
73973;PMS5003;62336;-26.094;27.994;2023-06-22T09:17:16;13;13;
73973;PMS5003;62336;-26.094;27.994;2023-06-22T09:19:41;19;18;
73973;PMS5003;62336;-26.094;27.994;2023-06-22T09:22:08;24;23;
73973;PMS5003;62336;-26.094;27.994;2023-06-22T09:24:33;31;31;
73973;PMS5003;62336;-26.094;27.994;2023-06-22T09:26:58;26;25;
73973;PMS5003;62336;-26.094;27.994;2023-06-22T09:29:23;23;22;
73973;PMS5003;62336;-26.094;27.994;2023-06-22T09:31:48;23;22;
73973;PMS5003;62336;-26.094;27.994;2023-06-22T09:34:14;21;20;
73973;PMS5003;62336;-26.094;27.994;2023-06-22T09:36:41;22;21;
73973;PMS5003;62336;-26.094;27.994;2023-06-22T09:39:05;24;23;
73973;PMS5003;62336;-26.094;27.994;2023-06-22T09:41:31;25;25;
73973;PMS5003;62336;-26.094;27.994;2023-06-22T09:43:56;37;36;
73973;PMS5003;62336;-26.094;27.994;2023-06-22T09:46:27;24;22;
73973;PMS5003;62336;-26.094;27.994;2023-06-22T09:48:47;27;26;
73973;PMS5003;62336;-26.094;27.994;2023-06-22T09:51:12;25;24;
73973;PMS5003;62336;-26.094;27.994;2023-06-22T09:53:38;19;18;
73973;PMS5003;62336;-26.094;27.994;2023-06-22T09:56:03;21;21;
73973;PMS5003;62336;-26.094;27.994;2023-06-22T09:58:28;20;20;
73973;PMS5003;62336;-26.094;27.994;2023-06-22T10:00:54;18;18;
73973;PMS5003;62336;-26.094;27.994;2023-06-22T10:03:19;19;19;
73973;PMS5003;62336;-26.094;27.994;2023-06-22T10:05:44;24;22;
73973;PMS5003;62336;-26.094;27.994;2023-06-22T10:08:10;30;30;
73973;PMS5003;62336;-26.094;27.994;2023-06-22T10:10:35;31;30;
73973;PMS5003;62336;-26.094;27.994;2023-06-22T10:13:07;28;26;
73973;PMS5003;62336;-26.094;27.994;2023-06-22T10:15:27;28;26;
73973;PMS5003;62336;-26.094;27.994;2023-06-22T10:17:52;29;28;
73973;PMS5003;62336;-26.094;27.994;2023-06-22T10:20:17;31;29;
73973;PMS5003;62336;-26.094;27.994;2023-06-22T10:22:44;31;30;
73973;PMS5003;62336;-26.094;27.994;2023-06-22T10:25:09;30;30;
73973;PMS5003;62336;-26.094;27.994;2023-06-22T10:27:34;31;29;
73973;PMS5003;62336;-26.094;27.994;2023-06-22T10:29:59;27;27;
73973;PMS5003;62336;-26.094;27.994;2023-06-22T10:32:24;26;26;
73973;PMS5003;62336;-26.094;27.994;2023-06-22T10:34:49;24;22;
73973;PMS5003;62336;-26.094;27.994;2023-06-22T10:37:15;26;23;
73973;PMS5003;62336;-26.094;27.994;2023-06-22T10:39:39;29;27;
73973;PMS5003;62336;-26.094;27.994;2023-06-22T10:42:05;27;26;
73973;PMS5003;62336;-26.094;27.994;2023-06-22T10:44:30;30;29;
73973;PMS5003;62336;-26.094;27.994;2023-06-22T10:46:55;30;30;
73973;PMS5003;62336;-26.094;27.994;2023-06-22T10:49:21;28;26;
73973;PMS5003;62336;-26.094;27.994;2023-06-22T10:51:46;38;35;
73973;PMS5003;62336;-26.094;27.994;2023-06-22T10:54:12;29;29;
73973;PMS5003;62336;-26.094;27.994;2023-06-22T10:56:36;31;29;
73973;PMS5003;62336;-26.094;27.994;2023-06-22T10:59:02;35;33;
73973;PMS5003;62336;-26.094;27.994;2023-06-22T11:01:27;30;28;
73973;PMS5003;62336;-26.094;27.994;2023-06-22T11:03:53;35;33;
73973;PMS5003;62336;-26.094;27.994;2023-06-22T11:06:19;27;27;
73973;PMS5003;62336;-26.094;27.994;2023-06-22T11:08:44;33;31;
73973;PMS5003;62336;-26.094;27.994;2023-06-22T11:11:09;30;29;
73973;PMS5003;62336;-26.094;27.994;2023-06-22T11:13:35;32;31;
73973;PMS5003;62336;-26.094;27.994;2023-06-22T11:16:00;36;35;
73973;PMS5003;62336;-26.094;27.994;2023-06-22T11:18:26;28;26;
73973;PMS5003;62336;-26.094;27.994;2023-06-22T11:20:51;29;26;
73973;PMS5003;62336;-26.094;27.994;2023-06-22T11:23:16;28;27;
73973;PMS5003;62336;-26.094;27.994;2023-06-22T11:25:42;26;25;
73973;PMS5003;62336;-26.094;27.994;2023-06-22T11:28:07;30;29;
73973;PMS5003;62336;-26.094;27.994;2023-06-22T11:30:33;28;28;
73973;PMS5003;62336;-26.094;27.994;2023-06-22T11:32:59;37;37;
73973;PMS5003;62336;-26.094;27.994;2023-06-22T11:35:23;37;34;
73973;PMS5003;62336;-26.094;27.994;2023-06-22T11:37:49;32;31;
73973;PMS5003;62336;-26.094;27.994;2023-06-22T11:40:14;32;29;
73973;PMS5003;62336;-26.094;27.994;2023-06-22T11:42:40;28;26;
73973;PMS5003;62336;-26.094;27.994;2023-06-22T11:45:06;26;25;
73973;PMS5003;62336;-26.094;27.994;2023-06-22T11:47:31;28;27;
73973;PMS5003;62336;-26.094;27.994;2023-06-22T11:49:58;24;24;
73973;PMS5003;62336;-26.094;27.994;2023-06-22T11:52:23;27;26;
73973;PMS5003;62336;-26.094;27.994;2023-06-22T11:54:48;30;28;
73973;PMS5003;62336;-26.094;27.994;2023-06-22T11:57:14;31;29;
73973;PMS5003;62336;-26.094;27.994;2023-06-22T11:59:40;52;48;
73973;PMS5003;62336;-26.094;27.994;2023-06-22T12:02:06;40;37;
73973;PMS5003;62336;-26.094;27.994;2023-06-22T12:04:30;36;34;
73973;PMS5003;62336;-26.094;27.994;2023-06-22T12:06:55;33;32;
73973;PMS5003;62336;-26.094;27.994;2023-06-22T12:09:21;35;31;
73973;PMS5003;62336;-26.094;27.994;2023-06-22T12:11:46;42;41;
73973;PMS5003;62336;-26.094;27.994;2023-06-22T12:14:12;31;31;
73973;PMS5003;62336;-26.094;27.994;2023-06-22T12:16:37;39;37;
73973;PMS5003;62336;-26.094;27.994;2023-06-22T12:19:03;35;32;
73973;PMS5003;62336;-26.094;27.994;2023-06-22T12:21:28;40;37;
73973;PMS5003;62336;-26.094;27.994;2023-06-22T12:23:53;37;36;
73973;PMS5003;62336;-26.094;27.994;2023-06-22T12:26:19;35;34;
73973;PMS5003;62336;-26.094;27.994;2023-06-22T12:28:44;37;37;
73973;PMS5003;62336;-26.094;27.994;2023-06-22T12:31:09;39;38;
73973;PMS5003;62336;-26.094;27.994;2023-06-22T12:33:35;41;37;
73973;PMS5003;62336;-26.094;27.994;2023-06-22T12:36:00;35;33;
73973;PMS5003;62336;-26.094;27.994;2023-06-22T12:38:26;39;39;
73973;PMS5003;62336;-26.094;27.994;2023-06-22T12:40:51;39;38;
73973;PMS5003;62336;-26.094;27.994;2023-06-22T12:43:16;36;36;
73973;PMS5003;62336;-26.094;27.994;2023-06-22T12:45:42;49;44;
73973;PMS5003;62336;-26.094;27.994;2023-06-22T12:48:07;42;40;
73973;PMS5003;62336;-26.094;27.994;2023-06-22T12:50:33;39;38;
73973;PMS5003;62336;-26.094;27.994;2023-06-22T12:52:58;40;40;
73973;PMS5003;62336;-26.094;27.994;2023-06-22T12:55:24;41;40;
73973;PMS5003;62336;-26.094;27.994;2023-06-22T12:57:49;42;39;
73973;PMS5003;62336;-26.094;27.994;2023-06-22T13:00:15;47;46;
73973;PMS5003;62336;-26.094;27.994;2023-06-22T13:02:40;46;42;
73973;PMS5003;62336;-26.094;27.994;2023-06-22T13:05:06;45;43;
73973;PMS5003;62336;-26.094;27.994;2023-06-22T13:07:31;42;41;
73973;PMS5003;62336;-26.094;27.994;2023-06-22T13:09:57;40;39;
73973;PMS5003;62336;-26.094;27.994;2023-06-22T13:12:22;38;36;
73973;PMS5003;62336;-26.094;27.994;2023-06-22T13:14:48;39;37;
73973;PMS5003;62336;-26.094;27.994;2023-06-22T13:17:13;45;40;
73973;PMS5003;62336;-26.094;27.994;2023-06-22T13:19:38;40;39;
73973;PMS5003;62336;-26.094;27.994;2023-06-22T13:22:04;38;37;
73973;PMS5003;62336;-26.094;27.994;2023-06-22T13:24:29;38;35;
73973;PMS5003;62336;-26.094;27.994;2023-06-22T13:26:54;37;36;
73973;PMS5003;62336;-26.094;27.994;2023-06-22T13:29:19;36;36;
73973;PMS5003;62336;-26.094;27.994;2023-06-22T13:31:44;37;35;
73973;PMS5003;62336;-26.094;27.994;2023-06-22T13:34:10;33;33;
73973;PMS5003;62336;-26.094;27.994;2023-06-22T13:36:36;44;44;
73973;PMS5003;62336;-26.094;27.994;2023-06-22T13:39:01;43;42;
73973;PMS5003;62336;-26.094;27.994;2023-06-22T13:41:26;43;39;
73973;PMS5003;62336;-26.094;27.994;2023-06-22T13:43:52;40;38;
73973;PMS5003;62336;-26.094;27.994;2023-06-22T13:46:17;42;38;
73973;PMS5003;62336;-26.094;27.994;2023-06-22T13:48:42;40;38;
73973;PMS5003;62336;-26.094;27.994;2023-06-22T13:51:08;35;33;
73973;PMS5003;62336;-26.094;27.994;2023-06-22T13:53:33;46;44;
73973;PMS5003;62336;-26.094;27.994;2023-06-22T13:55:58;44;42;
73973;PMS5003;62336;-26.094;27.994;2023-06-22T13:58:23;39;36;
73973;PMS5003;62336;-26.094;27.994;2023-06-22T14:00:49;37;33;
73973;PMS5003;62336;-26.094;27.994;2023-06-22T14:03:14;37;31;
73973;PMS5003;62336;-26.094;27.994;2023-06-22T14:05:41;33;32;
73973;PMS5003;62336;-26.094;27.994;2023-06-22T14:08:05;38;36;
73973;PMS5003;62336;-26.094;27.994;2023-06-22T14:10:31;37;35;
73973;PMS5003;62336;-26.094;27.994;2023-06-22T14:12:57;34;31;
73973;PMS5003;62336;-26.094;27.994;2023-06-22T14:15:22;32;32;
73973;PMS5003;62336;-26.094;27.994;2023-06-22T14:17:47;32;31;
73973;PMS5003;62336;-26.094;27.994;2023-06-22T14:20:12;35;32;
73973;PMS5003;62336;-26.094;27.994;2023-06-22T14:22:38;32;31;
73973;PMS5003;62336;-26.094;27.994;2023-06-22T14:25:04;36;33;
73973;PMS5003;62336;-26.094;27.994;2023-06-22T14:27:29;33;33;
73973;PMS5003;62336;-26.094;27.994;2023-06-22T14:29:54;31;31;
73973;PMS5003;62336;-26.094;27.994;2023-06-22T14:32:19;35;32;
73973;PMS5003;62336;-26.094;27.994;2023-06-22T14:34:44;30;29;
73973;PMS5003;62336;-26.094;27.994;2023-06-22T14:37:10;30;29;
73973;PMS5003;62336;-26.094;27.994;2023-06-22T14:39:36;32;30;
73973;PMS5003;62336;-26.094;27.994;2023-06-22T14:42:01;28;27;
73973;PMS5003;62336;-26.094;27.994;2023-06-22T14:44:26;29;29;
73973;PMS5003;62336;-26.094;27.994;2023-06-22T14:46:52;30;29;
73973;PMS5003;62336;-26.094;27.994;2023-06-22T14:49:17;30;29;
73973;PMS5003;62336;-26.094;27.994;2023-06-22T14:51:43;29;28;
73973;PMS5003;62336;-26.094;27.994;2023-06-22T14:54:08;29;27;
73973;PMS5003;62336;-26.094;27.994;2023-06-22T14:56:33;32;28;
73973;PMS5003;62336;-26.094;27.994;2023-06-22T14:58:59;32;31;
73973;PMS5003;62336;-26.094;27.994;2023-06-22T15:01:24;29;27;
73973;PMS5003;62336;-26.094;27.994;2023-06-22T15:03:50;27;26;
73973;PMS5003;62336;-26.094;27.994;2023-06-22T15:06:15;27;27;
73973;PMS5003;62336;-26.094;27.994;2023-06-22T15:08:40;27;25;
73973;PMS5003;62336;-26.094;27.994;2023-06-22T15:11:05;28;28;
73973;PMS5003;62336;-26.094;27.994;2023-06-22T15:13:31;35;33;
73973;PMS5003;62336;-26.094;27.994;2023-06-22T15:15:57;36;35;
73973;PMS5003;62336;-26.094;27.994;2023-06-22T15:18:22;39;35;
73973;PMS5003;62336;-26.094;27.994;2023-06-22T15:20:47;32;30;
73973;PMS5003;62336;-26.094;27.994;2023-06-22T15:23:13;34;32;
73973;PMS5003;62336;-26.094;27.994;2023-06-22T15:25:39;33;32;
73973;PMS5003;62336;-26.094;27.994;2023-06-22T15:28:05;41;40;
73973;PMS5003;62336;-26.094;27.994;2023-06-22T15:30:29;38;37;
73973;PMS5003;62336;-26.094;27.994;2023-06-22T15:32:54;39;38;